sensor_id;sensor_type;location;lat;lon;timestamp;temperature;humidity
25332;DHT22;13284;52.748;13.452;2022-12-18T00:01:15;-3.90;99.90
25332;DHT22;13284;52.748;13.452;2022-12-18T00:03:40;-3.90;99.90
25332;DHT22;13284;52.748;13.452;2022-12-18T00:06:06;-3.90;99.90
25332;DHT22;13284;52.748;13.452;2022-12-18T00:08:31;-3.80;99.90
25332;DHT22;13284;52.748;13.452;2022-12-18T00:11:03;-4.00;99.90
25332;DHT22;13284;52.748;13.452;2022-12-18T00:13:29;-4.00;99.90
25332;DHT22;13284;52.748;13.452;2022-12-18T00:15:55;-4.00;99.90
25332;DHT22;13284;52.748;13.452;2022-12-18T00:18:20;-4.10;99.90
25332;DHT22;13284;52.748;13.452;2022-12-18T00:20:45;-4.10;99.90
25332;DHT22;13284;52.748;13.452;2022-12-18T00:23:11;-4.20;99.90
25332;DHT22;13284;52.748;13.452;2022-12-18T00:25:37;-4.20;99.90
25332;DHT22;13284;52.748;13.452;2022-12-18T00:28:03;-4.10;99.90
25332;DHT22;13284;52.748;13.452;2022-12-18T00:30:28;-4.10;99.90
25332;DHT22;13284;52.748;13.452;2022-12-18T00:32:54;-4.10;99.90
25332;DHT22;13284;52.748;13.452;2022-12-18T00:35:20;-4.10;99.90
25332;DHT22;13284;52.748;13.452;2022-12-18T00:37:45;-4.00;99.90
25332;DHT22;13284;52.748;13.452;2022-12-18T00:40:11;-4.00;99.90
25332;DHT22;13284;52.748;13.452;2022-12-18T00:42:37;-4.10;99.90
25332;DHT22;13284;52.748;13.452;2022-12-18T00:45:25;-4.10;99.90
25332;DHT22;13284;52.748;13.452;2022-12-18T00:47:51;-4.10;99.90
25332;DHT22;13284;52.748;13.452;2022-12-18T00:50:16;-4.10;99.90
25332;DHT22;13284;52.748;13.452;2022-12-18T00:52:42;-4.10;99.90
25332;DHT22;13284;52.748;13.452;2022-12-18T00:55:09;-4.20;99.90
25332;DHT22;13284;52.748;13.452;2022-12-18T00:57:35;-4.20;99.90
25332;DHT22;13284;52.748;13.452;2022-12-18T01:00:01;-4.20;99.90
25332;DHT22;13284;52.748;13.452;2022-12-18T01:02:26;-4.20;99.90
25332;DHT22;13284;52.748;13.452;2022-12-18T01:04:52;-4.20;99.90
25332;DHT22;13284;52.748;13.452;2022-12-18T01:07:17;-4.20;99.90
25332;DHT22;13284;52.748;13.452;2022-12-18T01:09:43;-4.20;99.90
25332;DHT22;13284;52.748;13.452;2022-12-18T01:12:08;-4.20;99.90
25332;DHT22;13284;52.748;13.452;2022-12-18T01:14:34;-4.20;99.90
25332;DHT22;13284;52.748;13.452;2022-12-18T01:16:59;-4.20;99.90
25332;DHT22;13284;52.748;13.452;2022-12-18T01:19:27;-4.20;99.90
25332;DHT22;13284;52.748;13.452;2022-12-18T01:21:53;-4.10;99.90
25332;DHT22;13284;52.748;13.452;2022-12-18T01:24:19;-4.10;99.90
25332;DHT22;13284;52.748;13.452;2022-12-18T01:26:45;-4.20;99.90
25332;DHT22;13284;52.748;13.452;2022-12-18T01:29:10;-4.20;99.90
25332;DHT22;13284;52.748;13.452;2022-12-18T01:31:36;-4.20;99.90
25332;DHT22;13284;52.748;13.452;2022-12-18T01:34:03;-4.20;99.90
25332;DHT22;13284;52.748;13.452;2022-12-18T01:36:31;-4.20;99.90
25332;DHT22;13284;52.748;13.452;2022-12-18T01:39:00;-4.20;99.90
25332;DHT22;13284;52.748;13.452;2022-12-18T01:41:28;-4.30;99.90
25332;DHT22;13284;52.748;13.452;2022-12-18T01:47:39;-4.30;99.90
25332;DHT22;13284;52.748;13.452;2022-12-18T01:50:10;-4.30;99.90
25332;DHT22;13284;52.748;13.452;2022-12-18T01:52:37;-4.40;99.90
25332;DHT22;13284;52.748;13.452;2022-12-18T01:55:05;-4.50;99.90
25332;DHT22;13284;52.748;13.452;2022-12-18T01:57:31;-4.40;99.90
25332;DHT22;13284;52.748;13.452;2022-12-18T02:00:01;-4.50;99.90
25332;DHT22;13284;52.748;13.452;2022-12-18T02:02:28;-4.50;99.90
25332;DHT22;13284;52.748;13.452;2022-12-18T02:04:54;-4.50;99.90
25332;DHT22;13284;52.748;13.452;2022-12-18T02:09:56;-4.50;99.90
25332;DHT22;13284;52.748;13.452;2022-12-18T02:12:37;-4.60;99.90
25332;DHT22;13284;52.748;13.452;2022-12-18T02:16:05;-4.80;99.90
25332;DHT22;13284;52.748;13.452;2022-12-18T02:18:16;-4.80;99.90
25332;DHT22;13284;52.748;13.452;2022-12-18T02:20:52;-4.80;99.90
25332;DHT22;13284;52.748;13.452;2022-12-18T02:26:07;-4.90;99.90
25332;DHT22;13284;52.748;13.452;2022-12-18T02:28:43;-4.90;99.90
25332;DHT22;13284;52.748;13.452;2022-12-18T02:31:14;-5.00;99.90
25332;DHT22;13284;52.748;13.452;2022-12-18T02:33:43;-4.90;99.90
25332;DHT22;13284;52.748;13.452;2022-12-18T02:36:11;-5.10;99.90
25332;DHT22;13284;52.748;13.452;2022-12-18T02:38:38;-5.10;99.90
25332;DHT22;13284;52.748;13.452;2022-12-18T02:41:05;-5.20;99.90
25332;DHT22;13284;52.748;13.452;2022-12-18T02:43:31;-5.20;99.90
25332;DHT22;13284;52.748;13.452;2022-12-18T02:45:59;-5.20;99.90
25332;DHT22;13284;52.748;13.452;2022-12-18T02:48:32;-5.20;99.90
25332;DHT22;13284;52.748;13.452;2022-12-18T02:51:03;-5.10;99.90
25332;DHT22;13284;52.748;13.452;2022-12-18T02:53:41;-5.20;99.90
25332;DHT22;13284;52.748;13.452;2022-12-18T02:56:18;-5.10;99.90
25332;DHT22;13284;52.748;13.452;2022-12-18T02:59:08;-5.10;99.90
25332;DHT22;13284;52.748;13.452;2022-12-18T03:01:50;-5.10;99.90
25332;DHT22;13284;52.748;13.452;2022-12-18T03:04:30;-5.00;99.90
25332;DHT22;13284;52.748;13.452;2022-12-18T03:07:01;-5.10;99.90
25332;DHT22;13284;52.748;13.452;2022-12-18T03:09:35;-5.10;99.90
25332;DHT22;13284;52.748;13.452;2022-12-18T03:12:09;-5.10;99.90
25332;DHT22;13284;52.748;13.452;2022-12-18T03:15:02;-5.20;99.90
25332;DHT22;13284;52.748;13.452;2022-12-18T03:17:31;-5.10;99.90
25332;DHT22;13284;52.748;13.452;2022-12-18T03:20:02;-5.10;99.90
25332;DHT22;13284;52.748;13.452;2022-12-18T03:22:30;-5.20;99.90
25332;DHT22;13284;52.748;13.452;2022-12-18T03:24:58;-5.20;99.90
25332;DHT22;13284;52.748;13.452;2022-12-18T03:27:27;-5.30;99.90
25332;DHT22;13284;52.748;13.452;2022-12-18T03:30:08;-5.30;99.90
25332;DHT22;13284;52.748;13.452;2022-12-18T03:35:30;-5.30;99.90
25332;DHT22;13284;52.748;13.452;2022-12-18T03:37:57;-5.30;99.90
25332;DHT22;13284;52.748;13.452;2022-12-18T03:41:02;-5.20;99.90
25332;DHT22;13284;52.748;13.452;2022-12-18T03:46:31;-5.10;99.90
25332;DHT22;13284;52.748;13.452;2022-12-18T03:49:02;-5.10;99.90
25332;DHT22;13284;52.748;13.452;2022-12-18T03:51:42;-5.20;99.90
25332;DHT22;13284;52.748;13.452;2022-12-18T03:54:11;-5.10;99.90
25332;DHT22;13284;52.748;13.452;2022-12-18T03:56:40;-5.10;99.90
25332;DHT22;13284;52.748;13.452;2022-12-18T03:59:09;-5.20;99.90
25332;DHT22;13284;52.748;13.452;2022-12-18T04:01:39;-5.20;99.90
25332;DHT22;13284;52.748;13.452;2022-12-18T04:04:07;-5.30;99.90
25332;DHT22;13284;52.748;13.452;2022-12-18T04:06:35;-5.20;99.90
25332;DHT22;13284;52.748;13.452;2022-12-18T04:09:01;-5.30;99.90
25332;DHT22;13284;52.748;13.452;2022-12-18T04:11:27;-5.30;99.90
25332;DHT22;13284;52.748;13.452;2022-12-18T04:13:56;-5.30;99.90
25332;DHT22;13284;52.748;13.452;2022-12-18T04:16:23;-5.30;99.90
25332;DHT22;13284;52.748;13.452;2022-12-18T04:18:49;-5.30;99.90
25332;DHT22;13284;52.748;13.452;2022-12-18T04:21:14;-5.30;99.90
25332;DHT22;13284;52.748;13.452;2022-12-18T04:23:40;-5.30;99.90
25332;DHT22;13284;52.748;13.452;2022-12-18T04:26:05;-5.40;99.90
25332;DHT22;13284;52.748;13.452;2022-12-18T04:28:30;-5.30;99.90
25332;DHT22;13284;52.748;13.452;2022-12-18T04:30:56;-5.40;99.90
25332;DHT22;13284;52.748;13.452;2022-12-18T04:33:21;-5.20;99.90
25332;DHT22;13284;52.748;13.452;2022-12-18T04:35:47;-5.20;99.90
25332;DHT22;13284;52.748;13.452;2022-12-18T04:38:12;-5.20;99.90
25332;DHT22;13284;52.748;13.452;2022-12-18T04:40:38;-5.30;99.90
25332;DHT22;13284;52.748;13.452;2022-12-18T04:43:04;-5.30;99.90
25332;DHT22;13284;52.748;13.452;2022-12-18T04:45:33;-5.30;99.90
25332;DHT22;13284;52.748;13.452;2022-12-18T04:47:59;-5.40;99.90
25332;DHT22;13284;52.748;13.452;2022-12-18T04:50:24;-5.40;99.90
25332;DHT22;13284;52.748;13.452;2022-12-18T04:52:50;-5.50;99.90
25332;DHT22;13284;52.748;13.452;2022-12-18T04:55:15;-5.40;99.90
25332;DHT22;13284;52.748;13.452;2022-12-18T04:57:41;-5.50;99.90
25332;DHT22;13284;52.748;13.452;2022-12-18T05:00:07;-5.50;99.90
25332;DHT22;13284;52.748;13.452;2022-12-18T05:02:33;-5.50;99.90
25332;DHT22;13284;52.748;13.452;2022-12-18T05:04:58;-5.50;99.90
25332;DHT22;13284;52.748;13.452;2022-12-18T05:07:24;-5.50;99.90
25332;DHT22;13284;52.748;13.452;2022-12-18T05:09:49;-5.50;99.90
25332;DHT22;13284;52.748;13.452;2022-12-18T05:12:15;-5.60;99.90
25332;DHT22;13284;52.748;13.452;2022-12-18T05:14:40;-5.50;99.90
25332;DHT22;13284;52.748;13.452;2022-12-18T05:17:06;-5.50;99.90
25332;DHT22;13284;52.748;13.452;2022-12-18T05:19:31;-5.50;99.90
25332;DHT22;13284;52.748;13.452;2022-12-18T05:21:57;-5.40;99.90
25332;DHT22;13284;52.748;13.452;2022-12-18T05:24:23;-5.40;99.90
25332;DHT22;13284;52.748;13.452;2022-12-18T05:26:49;-5.40;99.90
25332;DHT22;13284;52.748;13.452;2022-12-18T05:29:14;-5.40;99.90
25332;DHT22;13284;52.748;13.452;2022-12-18T05:31:40;-5.50;99.90
25332;DHT22;13284;52.748;13.452;2022-12-18T05:34:05;-5.50;99.90
25332;DHT22;13284;52.748;13.452;2022-12-18T05:36:31;-5.60;99.90
25332;DHT22;13284;52.748;13.452;2022-12-18T05:38:57;-5.50;99.90
25332;DHT22;13284;52.748;13.452;2022-12-18T05:41:22;-5.60;99.90
25332;DHT22;13284;52.748;13.452;2022-12-18T05:43:48;-5.60;99.90
25332;DHT22;13284;52.748;13.452;2022-12-18T05:46:16;-5.50;99.90
25332;DHT22;13284;52.748;13.452;2022-12-18T05:48:43;-5.60;99.90
25332;DHT22;13284;52.748;13.452;2022-12-18T05:51:14;-5.60;99.90
25332;DHT22;13284;52.748;13.452;2022-12-18T05:53:41;-5.70;99.90
25332;DHT22;13284;52.748;13.452;2022-12-18T05:56:09;-5.70;99.90
25332;DHT22;13284;52.748;13.452;2022-12-18T05:58:35;-5.70;99.90
25332;DHT22;13284;52.748;13.452;2022-12-18T06:01:11;-5.70;99.90
25332;DHT22;13284;52.748;13.452;2022-12-18T06:03:36;-5.70;99.90
25332;DHT22;13284;52.748;13.452;2022-12-18T06:06:02;-5.60;99.90
25332;DHT22;13284;52.748;13.452;2022-12-18T06:08:28;-5.60;99.90
25332;DHT22;13284;52.748;13.452;2022-12-18T06:10:54;-5.70;99.90
25332;DHT22;13284;52.748;13.452;2022-12-18T06:13:20;-5.70;99.90
25332;DHT22;13284;52.748;13.452;2022-12-18T06:15:46;-5.80;99.90
25332;DHT22;13284;52.748;13.452;2022-12-18T06:18:11;-5.80;99.90
25332;DHT22;13284;52.748;13.452;2022-12-18T06:20:37;-5.80;99.90
25332;DHT22;13284;52.748;13.452;2022-12-18T06:23:05;-5.90;99.90
25332;DHT22;13284;52.748;13.452;2022-12-18T06:25:30;-5.90;99.90
25332;DHT22;13284;52.748;13.452;2022-12-18T06:27:56;-5.90;99.90
25332;DHT22;13284;52.748;13.452;2022-12-18T06:30:21;-5.90;99.90
25332;DHT22;13284;52.748;13.452;2022-12-18T06:32:50;-5.90;99.90
25332;DHT22;13284;52.748;13.452;2022-12-18T06:35:16;-5.90;99.90
25332;DHT22;13284;52.748;13.452;2022-12-18T06:37:41;-5.90;99.90
25332;DHT22;13284;52.748;13.452;2022-12-18T06:40:07;-5.90;99.90
25332;DHT22;13284;52.748;13.452;2022-12-18T06:42:33;-5.80;99.90
25332;DHT22;13284;52.748;13.452;2022-12-18T06:44:58;-5.80;99.90
25332;DHT22;13284;52.748;13.452;2022-12-18T06:47:24;-5.80;99.90
25332;DHT22;13284;52.748;13.452;2022-12-18T06:49:49;-5.80;99.90
25332;DHT22;13284;52.748;13.452;2022-12-18T06:52:16;-5.80;99.90
25332;DHT22;13284;52.748;13.452;2022-12-18T06:54:42;-5.70;99.90
25332;DHT22;13284;52.748;13.452;2022-12-18T06:57:07;-5.80;99.90
25332;DHT22;13284;52.748;13.452;2022-12-18T06:59:33;-5.80;99.90
25332;DHT22;13284;52.748;13.452;2022-12-18T07:01:58;-5.80;99.90
25332;DHT22;13284;52.748;13.452;2022-12-18T07:04:28;-5.70;99.90
25332;DHT22;13284;52.748;13.452;2022-12-18T07:06:54;-5.70;99.90
25332;DHT22;13284;52.748;13.452;2022-12-18T07:09:20;-5.60;99.90
25332;DHT22;13284;52.748;13.452;2022-12-18T07:11:45;-5.60;99.90
25332;DHT22;13284;52.748;13.452;2022-12-18T07:14:11;-5.60;99.90
25332;DHT22;13284;52.748;13.452;2022-12-18T07:16:36;-5.60;99.90
25332;DHT22;13284;52.748;13.452;2022-12-18T07:19:02;-5.60;99.90
25332;DHT22;13284;52.748;13.452;2022-12-18T07:21:27;-5.70;99.90
25332;DHT22;13284;52.748;13.452;2022-12-18T07:23:53;-5.70;99.90
25332;DHT22;13284;52.748;13.452;2022-12-18T07:26:20;-5.70;99.90
25332;DHT22;13284;52.748;13.452;2022-12-18T07:28:46;-5.70;99.90
25332;DHT22;13284;52.748;13.452;2022-12-18T07:31:17;-5.70;99.90
25332;DHT22;13284;52.748;13.452;2022-12-18T07:33:45;-5.60;99.90
25332;DHT22;13284;52.748;13.452;2022-12-18T07:36:11;-5.60;99.90
25332;DHT22;13284;52.748;13.452;2022-12-18T07:38:37;-5.50;99.90
25332;DHT22;13284;52.748;13.452;2022-12-18T07:41:11;-5.60;99.90
25332;DHT22;13284;52.748;13.452;2022-12-18T07:43:37;-5.70;99.90
25332;DHT22;13284;52.748;13.452;2022-12-18T07:46:04;-5.60;99.90
25332;DHT22;13284;52.748;13.452;2022-12-18T07:48:30;-5.60;99.90
25332;DHT22;13284;52.748;13.452;2022-12-18T07:51:03;-5.60;99.90
25332;DHT22;13284;52.748;13.452;2022-12-18T07:53:29;-5.60;99.90
25332;DHT22;13284;52.748;13.452;2022-12-18T07:56:08;-5.60;99.90
25332;DHT22;13284;52.748;13.452;2022-12-18T07:58:35;-5.60;99.90
25332;DHT22;13284;52.748;13.452;2022-12-18T08:01:08;-5.50;99.90
25332;DHT22;13284;52.748;13.452;2022-12-18T08:03:35;-5.50;99.90
25332;DHT22;13284;52.748;13.452;2022-12-18T08:06:02;-5.50;99.90
25332;DHT22;13284;52.748;13.452;2022-12-18T08:08:28;-5.50;99.90
25332;DHT22;13284;52.748;13.452;2022-12-18T08:10:54;-5.50;99.90
25332;DHT22;13284;52.748;13.452;2022-12-18T08:13:19;-5.50;99.90
25332;DHT22;13284;52.748;13.452;2022-12-18T08:15:45;-5.40;99.90
25332;DHT22;13284;52.748;13.452;2022-12-18T08:18:10;-5.40;99.90
25332;DHT22;13284;52.748;13.452;2022-12-18T08:20:36;-5.40;99.90
25332;DHT22;13284;52.748;13.452;2022-12-18T08:23:03;-5.40;99.90
25332;DHT22;13284;52.748;13.452;2022-12-18T08:25:30;-5.40;99.90
25332;DHT22;13284;52.748;13.452;2022-12-18T08:27:56;-5.30;99.90
25332;DHT22;13284;52.748;13.452;2022-12-18T08:30:22;-5.30;99.90
25332;DHT22;13284;52.748;13.452;2022-12-18T08:32:51;-5.30;99.90
25332;DHT22;13284;52.748;13.452;2022-12-18T08:35:18;-5.30;99.90
25332;DHT22;13284;52.748;13.452;2022-12-18T08:37:43;-5.30;99.90
25332;DHT22;13284;52.748;13.452;2022-12-18T08:40:09;-5.30;99.90
25332;DHT22;13284;52.748;13.452;2022-12-18T08:42:35;-5.30;99.90
25332;DHT22;13284;52.748;13.452;2022-12-18T08:45:19;-5.20;99.90
25332;DHT22;13284;52.748;13.452;2022-12-18T08:47:44;-5.30;99.90
25332;DHT22;13284;52.748;13.452;2022-12-18T08:50:10;-5.20;99.90
25332;DHT22;13284;52.748;13.452;2022-12-18T08:52:37;-5.10;99.90
25332;DHT22;13284;52.748;13.452;2022-12-18T08:55:02;-5.10;99.90
25332;DHT22;13284;52.748;13.452;2022-12-18T08:57:29;-5.20;99.90
25332;DHT22;13284;52.748;13.452;2022-12-18T09:00:02;-5.20;99.90
25332;DHT22;13284;52.748;13.452;2022-12-18T09:02:27;-5.20;99.90
25332;DHT22;13284;52.748;13.452;2022-12-18T09:04:53;-5.20;99.90
25332;DHT22;13284;52.748;13.452;2022-12-18T09:07:18;-5.20;99.90
25332;DHT22;13284;52.748;13.452;2022-12-18T09:09:45;-5.20;99.90
25332;DHT22;13284;52.748;13.452;2022-12-18T09:12:11;-5.20;99.90
25332;DHT22;13284;52.748;13.452;2022-12-18T09:14:37;-5.10;99.90
25332;DHT22;13284;52.748;13.452;2022-12-18T09:17:03;-5.10;99.90
25332;DHT22;13284;52.748;13.452;2022-12-18T09:19:28;-5.00;99.90
25332;DHT22;13284;52.748;13.452;2022-12-18T09:21:54;-4.90;99.90
25332;DHT22;13284;52.748;13.452;2022-12-18T09:24:19;-4.90;99.90
25332;DHT22;13284;52.748;13.452;2022-12-18T09:26:48;-5.00;99.90
25332;DHT22;13284;52.748;13.452;2022-12-18T09:29:15;-4.90;99.90
25332;DHT22;13284;52.748;13.452;2022-12-18T09:31:40;-4.90;99.90
25332;DHT22;13284;52.748;13.452;2022-12-18T09:40:57;-4.90;99.90
25332;DHT22;13284;52.748;13.452;2022-12-18T09:43:41;-4.80;99.90
25332;DHT22;13284;52.748;13.452;2022-12-18T09:46:10;-4.90;99.90
25332;DHT22;13284;52.748;13.452;2022-12-18T09:48:46;-4.80;99.90
25332;DHT22;13284;52.748;13.452;2022-12-18T09:51:44;-4.80;99.90
25332;DHT22;13284;52.748;13.452;2022-12-18T09:54:14;-4.70;99.90
25332;DHT22;13284;52.748;13.452;2022-12-18T09:56:42;-4.60;99.90
25332;DHT22;13284;52.748;13.452;2022-12-18T09:59:30;-4.50;99.90
25332;DHT22;13284;52.748;13.452;2022-12-18T10:01:57;-4.50;99.90
25332;DHT22;13284;52.748;13.452;2022-12-18T10:04:24;-4.40;99.90
25332;DHT22;13284;52.748;13.452;2022-12-18T10:07:03;-4.50;99.90
25332;DHT22;13284;52.748;13.452;2022-12-18T10:09:39;-4.50;99.90
25332;DHT22;13284;52.748;13.452;2022-12-18T10:12:23;-4.50;99.90
25332;DHT22;13284;52.748;13.452;2022-12-18T10:15:19;-4.50;99.90
25332;DHT22;13284;52.748;13.452;2022-12-18T10:17:57;-4.50;99.90
25332;DHT22;13284;52.748;13.452;2022-12-18T10:20:27;-4.50;99.90
25332;DHT22;13284;52.748;13.452;2022-12-18T10:23:04;-4.50;99.90
25332;DHT22;13284;52.748;13.452;2022-12-18T10:28:16;-4.20;99.90
25332;DHT22;13284;52.748;13.452;2022-12-18T10:30:43;-4.20;99.90
25332;DHT22;13284;52.748;13.452;2022-12-18T10:33:16;-4.30;99.90
25332;DHT22;13284;52.748;13.452;2022-12-18T10:35:43;-4.20;99.90
25332;DHT22;13284;52.748;13.452;2022-12-18T10:40:59;-4.20;99.90
25332;DHT22;13284;52.748;13.452;2022-12-18T10:43:34;-4.10;99.90
25332;DHT22;13284;52.748;13.452;2022-12-18T10:48:28;-4.10;99.90
25332;DHT22;13284;52.748;13.452;2022-12-18T10:50:55;-3.90;99.90
25332;DHT22;13284;52.748;13.452;2022-12-18T10:53:26;-3.80;99.90
25332;DHT22;13284;52.748;13.452;2022-12-18T10:55:54;-3.80;99.90
25332;DHT22;13284;52.748;13.452;2022-12-18T11:03:46;-3.80;99.90
25332;DHT22;13284;52.748;13.452;2022-12-18T11:06:24;-3.70;99.90
25332;DHT22;13284;52.748;13.452;2022-12-18T11:09:04;-3.70;99.90
25332;DHT22;13284;52.748;13.452;2022-12-18T11:11:32;-3.70;99.90
25332;DHT22;13284;52.748;13.452;2022-12-18T11:14:06;-3.60;99.90
25332;DHT22;13284;52.748;13.452;2022-12-18T11:16:43;-3.50;99.90
25332;DHT22;13284;52.748;13.452;2022-12-18T11:21:50;-3.40;99.90
25332;DHT22;13284;52.748;13.452;2022-12-18T11:24:28;-3.20;99.90
25332;DHT22;13284;52.748;13.452;2022-12-18T11:26:59;-3.30;99.90
25332;DHT22;13284;52.748;13.452;2022-12-18T11:29:33;-3.40;99.90
25332;DHT22;13284;52.748;13.452;2022-12-18T11:34:42;-3.20;99.90
25332;DHT22;13284;52.748;13.452;2022-12-18T11:37:11;-3.20;99.90
25332;DHT22;13284;52.748;13.452;2022-12-18T11:39:45;-3.20;99.90
25332;DHT22;13284;52.748;13.452;2022-12-18T11:42:22;-3.10;99.90
25332;DHT22;13284;52.748;13.452;2022-12-18T11:47:54;-3.00;99.90
25332;DHT22;13284;52.748;13.452;2022-12-18T11:51:10;-3.10;99.90
25332;DHT22;13284;52.748;13.452;2022-12-18T11:53:11;-3.10;99.90
25332;DHT22;13284;52.748;13.452;2022-12-18T11:58:47;-3.10;99.90
25332;DHT22;13284;52.748;13.452;2022-12-18T12:04:28;-3.10;99.90
25332;DHT22;13284;52.748;13.452;2022-12-18T12:09:48;-3.00;99.90
25332;DHT22;13284;52.748;13.452;2022-12-18T12:12:17;-3.10;99.90
25332;DHT22;13284;52.748;13.452;2022-12-18T12:17:51;-3.10;99.90
25332;DHT22;13284;52.748;13.452;2022-12-18T12:20:42;-3.10;99.90
25332;DHT22;13284;52.748;13.452;2022-12-18T12:35:08;-3.10;99.90
25332;DHT22;13284;52.748;13.452;2022-12-18T12:40:53;-3.10;99.90
25332;DHT22;13284;52.748;13.452;2022-12-18T12:43:43;-3.00;99.90
25332;DHT22;13284;52.748;13.452;2022-12-18T12:46:11;-2.90;99.90
25332;DHT22;13284;52.748;13.452;2022-12-18T12:48:50;-3.00;99.90
25332;DHT22;13284;52.748;13.452;2022-12-18T12:51:22;-3.10;99.90
25332;DHT22;13284;52.748;13.452;2022-12-18T12:53:50;-3.00;99.90
25332;DHT22;13284;52.748;13.452;2022-12-18T12:56:19;-3.00;99.90
25332;DHT22;13284;52.748;13.452;2022-12-18T13:06:47;-3.00;99.90
25332;DHT22;13284;52.748;13.452;2022-12-18T13:09:13;-3.00;99.90
25332;DHT22;13284;52.748;13.452;2022-12-18T13:11:46;-3.00;99.90
25332;DHT22;13284;52.748;13.452;2022-12-18T13:14:36;-3.00;99.90
25332;DHT22;13284;52.748;13.452;2022-12-18T13:19:51;-3.10;99.90
25332;DHT22;13284;52.748;13.452;2022-12-18T13:22:28;-3.20;99.90
25332;DHT22;13284;52.748;13.452;2022-12-18T13:24:54;-3.30;99.90
25332;DHT22;13284;52.748;13.452;2022-12-18T13:33:34;-3.40;99.90
25332;DHT22;13284;52.748;13.452;2022-12-18T13:36:12;-3.40;99.90
25332;DHT22;13284;52.748;13.452;2022-12-18T13:38:38;-3.40;99.90
25332;DHT22;13284;52.748;13.452;2022-12-18T13:41:22;-3.40;99.90
25332;DHT22;13284;52.748;13.452;2022-12-18T13:43:51;-3.40;99.90
25332;DHT22;13284;52.748;13.452;2022-12-18T13:46:45;-3.40;99.90
25332;DHT22;13284;52.748;13.452;2022-12-18T13:51:44;-3.40;99.90
25332;DHT22;13284;52.748;13.452;2022-12-18T13:54:33;-3.50;99.90
25332;DHT22;13284;52.748;13.452;2022-12-18T13:56:59;-3.50;99.90
25332;DHT22;13284;52.748;13.452;2022-12-18T13:59:26;-3.40;99.90
25332;DHT22;13284;52.748;13.452;2022-12-18T14:02:07;-3.50;99.90
25332;DHT22;13284;52.748;13.452;2022-12-18T14:04:35;-3.60;99.90
25332;DHT22;13284;52.748;13.452;2022-12-18T14:07:11;-3.60;99.90
25332;DHT22;13284;52.748;13.452;2022-12-18T14:09:43;-3.60;99.90
25332;DHT22;13284;52.748;13.452;2022-12-18T14:12:22;-3.60;99.90
25332;DHT22;13284;52.748;13.452;2022-12-18T14:17:54;-3.60;99.90
25332;DHT22;13284;52.748;13.452;2022-12-18T14:20:21;-3.70;99.90
25332;DHT22;13284;52.748;13.452;2022-12-18T14:22:48;-3.70;99.90
25332;DHT22;13284;52.748;13.452;2022-12-18T14:27:44;-3.70;99.90
25332;DHT22;13284;52.748;13.452;2022-12-18T14:30:27;-3.70;99.90
25332;DHT22;13284;52.748;13.452;2022-12-18T14:33:03;-3.70;99.90
25332;DHT22;13284;52.748;13.452;2022-12-18T14:35:32;-3.70;99.90
25332;DHT22;13284;52.748;13.452;2022-12-18T14:38:23;-3.60;99.90
25332;DHT22;13284;52.748;13.452;2022-12-18T14:43:20;-3.60;99.90
25332;DHT22;13284;52.748;13.452;2022-12-18T14:45:46;-3.60;99.90
25332;DHT22;13284;52.748;13.452;2022-12-18T14:48:20;-3.60;99.90
25332;DHT22;13284;52.748;13.452;2022-12-18T14:50:58;-3.60;99.90
25332;DHT22;13284;52.748;13.452;2022-12-18T14:53:39;-3.60;99.90
25332;DHT22;13284;52.748;13.452;2022-12-18T14:56:18;-3.60;99.90
25332;DHT22;13284;52.748;13.452;2022-12-18T14:58:47;-3.70;99.90
25332;DHT22;13284;52.748;13.452;2022-12-18T15:01:44;-3.60;99.90
25332;DHT22;13284;52.748;13.452;2022-12-18T15:07:04;-3.60;99.90
25332;DHT22;13284;52.748;13.452;2022-12-18T15:09:30;-3.60;99.90
25332;DHT22;13284;52.748;13.452;2022-12-18T15:11:57;-3.60;99.90
25332;DHT22;13284;52.748;13.452;2022-12-18T15:14:39;-3.50;99.90
25332;DHT22;13284;52.748;13.452;2022-12-18T15:17:15;-3.50;99.90
25332;DHT22;13284;52.748;13.452;2022-12-18T15:19:44;-3.50;99.90
25332;DHT22;13284;52.748;13.452;2022-12-18T15:22:28;-3.50;99.90
25332;DHT22;13284;52.748;13.452;2022-12-18T15:24:55;-3.40;99.90
25332;DHT22;13284;52.748;13.452;2022-12-18T15:27:27;-3.40;99.90
25332;DHT22;13284;52.748;13.452;2022-12-18T15:32:36;-3.40;99.90
25332;DHT22;13284;52.748;13.452;2022-12-18T15:35:13;-3.40;99.90
25332;DHT22;13284;52.748;13.452;2022-12-18T15:37:39;-3.40;99.90
25332;DHT22;13284;52.748;13.452;2022-12-18T15:40:05;-3.40;99.90
25332;DHT22;13284;52.748;13.452;2022-12-18T15:42:31;-3.50;99.90
25332;DHT22;13284;52.748;13.452;2022-12-18T15:45:15;-3.60;99.90
25332;DHT22;13284;52.748;13.452;2022-12-18T15:47:41;-3.50;99.90
25332;DHT22;13284;52.748;13.452;2022-12-18T15:50:09;-3.50;99.90
25332;DHT22;13284;52.748;13.452;2022-12-18T15:52:46;-3.50;99.90
25332;DHT22;13284;52.748;13.452;2022-12-18T15:55:13;-3.50;99.90
25332;DHT22;13284;52.748;13.452;2022-12-18T15:57:58;-3.50;99.90
25332;DHT22;13284;52.748;13.452;2022-12-18T16:00:24;-3.40;99.90
25332;DHT22;13284;52.748;13.452;2022-12-18T16:02:49;-3.40;99.90
25332;DHT22;13284;52.748;13.452;2022-12-18T16:05:16;-3.40;99.90
25332;DHT22;13284;52.748;13.452;2022-12-18T16:07:43;-3.50;99.90
25332;DHT22;13284;52.748;13.452;2022-12-18T16:10:09;-3.50;99.90
25332;DHT22;13284;52.748;13.452;2022-12-18T16:12:35;-3.50;99.90
25332;DHT22;13284;52.748;13.452;2022-12-18T16:15:01;-3.40;99.90
25332;DHT22;13284;52.748;13.452;2022-12-18T16:17:26;-3.40;99.90
25332;DHT22;13284;52.748;13.452;2022-12-18T16:19:52;-3.40;99.90
25332;DHT22;13284;52.748;13.452;2022-12-18T16:22:26;-3.30;99.90
25332;DHT22;13284;52.748;13.452;2022-12-18T16:24:53;-3.40;99.90
25332;DHT22;13284;52.748;13.452;2022-12-18T16:27:20;-3.40;99.90
25332;DHT22;13284;52.748;13.452;2022-12-18T16:29:46;-3.40;99.90
25332;DHT22;13284;52.748;13.452;2022-12-18T16:32:15;-3.40;99.90
25332;DHT22;13284;52.748;13.452;2022-12-18T16:34:41;-3.40;99.90
25332;DHT22;13284;52.748;13.452;2022-12-18T16:37:08;-3.40;99.90
25332;DHT22;13284;52.748;13.452;2022-12-18T16:39:35;-3.40;99.90
25332;DHT22;13284;52.748;13.452;2022-12-18T16:42:05;-3.40;99.90
25332;DHT22;13284;52.748;13.452;2022-12-18T16:44:32;-3.40;99.90
25332;DHT22;13284;52.748;13.452;2022-12-18T16:46:58;-3.40;99.90
25332;DHT22;13284;52.748;13.452;2022-12-18T16:49:27;-3.40;99.90
25332;DHT22;13284;52.748;13.452;2022-12-18T16:51:53;-3.30;99.90
25332;DHT22;13284;52.748;13.452;2022-12-18T16:54:19;-3.40;99.90
25332;DHT22;13284;52.748;13.452;2022-12-18T16:56:44;-3.40;99.90
25332;DHT22;13284;52.748;13.452;2022-12-18T16:59:12;-3.40;99.90
25332;DHT22;13284;52.748;13.452;2022-12-18T17:01:38;-3.40;99.90
25332;DHT22;13284;52.748;13.452;2022-12-18T17:04:05;-3.50;99.90
25332;DHT22;13284;52.748;13.452;2022-12-18T17:06:33;-3.50;99.90
25332;DHT22;13284;52.748;13.452;2022-12-18T17:09:06;-3.40;99.90
25332;DHT22;13284;52.748;13.452;2022-12-18T17:11:33;-3.50;99.90
25332;DHT22;13284;52.748;13.452;2022-12-18T17:14:04;-3.50;99.90